createdAt,value
2017-01-16T00:00:57.301Z,69
2017-01-16T00:02:03.335Z,69
2017-01-16T00:03:09.364Z,69
2017-01-16T00:04:15.385Z,69
2017-01-16T00:05:21.446Z,69
2017-01-16T00:06:27.422Z,69
2017-01-16T00:07:33.443Z,68
2017-01-16T00:08:39.475Z,68
2017-01-16T00:09:45.492Z,68
2017-01-16T00:10:51.529Z,68
2017-01-16T00:11:57.562Z,68
2017-01-16T00:13:03.588Z,68
2017-01-16T00:14:09.606Z,68
2017-01-16T00:15:15.656Z,68
2017-01-16T00:16:21.661Z,68
2017-01-16T00:17:27.676Z,69
2017-01-16T00:18:33.698Z,68
2017-01-16T00:19:39.776Z,68
2017-01-16T00:20:45.798Z,68
2017-01-16T00:21:51.829Z,68
2017-01-16T00:22:57.848Z,69
2017-01-16T00:24:03.896Z,68
2017-01-16T00:25:09.899Z,68
2017-01-16T00:26:15.929Z,68
2017-01-16T00:27:21.944Z,68
2017-01-16T00:28:27.970Z,68
2017-01-16T00:29:33.993Z,68
2017-01-16T00:30:40.028Z,68
2017-01-16T00:31:46.047Z,68
2017-01-16T00:32:52.069Z,68
2017-01-16T00:33:58.093Z,68
2017-01-16T00:35:04.115Z,68
2017-01-16T00:36:10.128Z,68
2017-01-16T00:37:16.155Z,68
2017-01-16T00:38:22.220Z,69
2017-01-16T00:39:28.244Z,68
2017-01-16T00:40:34.550Z,68
2017-01-16T00:41:40.335Z,68
2017-01-16T00:42:46.496Z,68
2017-01-16T00:43:52.505Z,68
2017-01-16T00:44:58.697Z,68
2017-01-16T00:46:04.649Z,68
2017-01-16T00:47:10.668Z,68
2017-01-16T00:48:16.689Z,68
2017-01-16T00:49:22.741Z,68
2017-01-16T00:50:28.728Z,68
2017-01-16T00:51:34.759Z,68
2017-01-16T00:52:40.788Z,68
2017-01-16T00:53:46.815Z,68
2017-01-16T00:54:52.834Z,68
2017-01-16T00:55:58.873Z,68
2017-01-16T00:57:04.954Z,68
2017-01-16T00:58:10.911Z,68
2017-01-16T00:59:16.921Z,68
2017-01-16T01:00:22.949Z,68
2017-01-16T01:01:28.976Z,68
2017-01-16T01:02:35.002Z,68
2017-01-16T01:03:41.030Z,68
2017-01-16T01:04:47.048Z,68
2017-01-16T01:05:53.068Z,68
2017-01-16T01:06:59.129Z,68
2017-01-16T01:08:05.111Z,68
2017-01-16T01:09:11.132Z,68
2017-01-16T01:10:17.151Z,68
2017-01-16T01:11:23.332Z,68
2017-01-16T01:12:29.256Z,68
2017-01-16T01:13:35.278Z,68
2017-01-16T01:14:41.301Z,68
2017-01-16T01:15:47.369Z,68
2017-01-16T01:16:53.343Z,68
2017-01-16T01:17:59.368Z,68
2017-01-16T01:19:05.385Z,68
2017-01-16T01:20:11.492Z,68
2017-01-16T01:21:17.434Z,68
2017-01-16T01:22:23.464Z,68
2017-01-16T01:23:29.488Z,68
2017-01-16T01:24:35.521Z,68
2017-01-16T01:25:41.537Z,68
2017-01-16T01:26:47.559Z,68
2017-01-16T01:27:53.582Z,68
2017-01-16T01:28:59.610Z,68
2017-01-16T01:30:05.633Z,68
2017-01-16T01:31:11.669Z,68
2017-01-16T01:32:17.676Z,68
2017-01-16T01:33:23.696Z,68
2017-01-16T01:34:29.715Z,68
2017-01-16T01:35:35.738Z,68
2017-01-16T01:36:41.759Z,68
2017-01-16T01:37:47.779Z,68
2017-01-16T01:38:53.833Z,68
2017-01-16T01:39:59.861Z,68
2017-01-16T01:41:05.883Z,68
2017-01-16T01:42:11.909Z,68
2017-01-16T01:43:17.958Z,68
2017-01-16T01:44:23.971Z,68
2017-01-16T01:45:29.987Z,68
2017-01-16T01:46:36.012Z,68
2017-01-16T01:47:42.031Z,68
2017-01-16T01:48:48.059Z,68
2017-01-16T01:49:54.086Z,68
2017-01-16T01:51:00.112Z,68
2017-01-16T01:52:06.132Z,67
2017-01-16T01:53:12.149Z,67
2017-01-16T01:54:18.177Z,68
2017-01-16T01:55:24.201Z,68
2017-01-16T01:56:30.222Z,68
2017-01-16T01:57:36.253Z,68
2017-01-16T01:58:42.279Z,67
2017-01-16T01:59:48.296Z,67
2017-01-16T02:00:54.317Z,68
2017-01-16T02:02:00.352Z,67
2017-01-16T02:03:06.369Z,68
2017-01-16T02:04:12.383Z,68
2017-01-16T02:05:18.410Z,68
2017-01-16T02:06:24.445Z,68
2017-01-16T02:07:30.459Z,68
2017-01-16T02:08:36.489Z,68
2017-01-16T02:09:42.518Z,68
2017-01-16T02:10:48.539Z,68
2017-01-16T02:11:54.559Z,69
2017-01-16T02:13:00.583Z,69
2017-01-16T02:14:06.597Z,69
2017-01-16T02:15:12.613Z,69
2017-01-16T02:16:18.635Z,69
2017-01-16T02:17:24.659Z,69
2017-01-16T02:18:30.677Z,69
2017-01-16T02:19:36.708Z,69
2017-01-16T02:20:42.731Z,69
2017-01-16T02:21:48.757Z,68
2017-01-16T02:22:54.772Z,68
2017-01-16T02:24:00.801Z,68
2017-01-16T02:25:06.819Z,68
2017-01-16T02:26:12.837Z,68
2017-01-16T02:27:18.856Z,68
2017-01-16T02:28:24.884Z,68
2017-01-16T02:29:30.899Z,68
2017-01-16T02:30:36.919Z,67
2017-01-16T02:31:42.943Z,68
2017-01-16T02:32:48.965Z,68
2017-01-16T02:33:54.989Z,68
2017-01-16T02:35:01.015Z,68
2017-01-16T02:36:07.033Z,68
2017-01-16T02:37:13.059Z,68
2017-01-16T02:38:19.086Z,68
2017-01-16T02:39:25.107Z,68
2017-01-16T02:40:31.125Z,68
2017-01-16T02:41:37.148Z,68
2017-01-16T02:42:43.169Z,68
2017-01-16T02:43:49.189Z,68
2017-01-16T02:44:55.212Z,68
2017-01-16T02:46:01.234Z,67
2017-01-16T02:47:07.256Z,67
2017-01-16T02:48:13.277Z,67
2017-01-16T02:49:19.292Z,67
2017-01-16T02:50:25.318Z,67
2017-01-16T02:51:31.342Z,67
2017-01-16T02:52:37.365Z,67
2017-01-16T02:53:43.384Z,67
2017-01-16T02:54:49.407Z,67
2017-01-16T02:55:55.426Z,67
2017-01-16T02:57:01.444Z,67
2017-01-16T02:58:07.463Z,67
2017-01-16T02:59:13.491Z,67
2017-01-16T03:00:19.516Z,67
2017-01-16T03:01:25.533Z,67
2017-01-16T03:02:31.551Z,67
2017-01-16T03:03:37.571Z,67
2017-01-16T03:04:43.597Z,67
2017-01-16T03:05:49.619Z,67
2017-01-16T03:06:55.643Z,67
2017-01-16T03:08:01.667Z,67
2017-01-16T03:09:07.697Z,67
2017-01-16T03:10:13.714Z,67
2017-01-16T03:11:19.740Z,67
2017-01-16T03:12:25.761Z,67
2017-01-16T03:13:31.787Z,67
2017-01-16T03:14:37.807Z,67
2017-01-16T03:15:43.827Z,67
2017-01-16T03:16:49.851Z,67
2017-01-16T03:17:55.871Z,67
2017-01-16T03:19:01.890Z,67
2017-01-16T03:20:07.913Z,67
2017-01-16T03:21:13.939Z,67
2017-01-16T03:22:19.959Z,66
2017-01-16T03:23:25.973Z,66
2017-01-16T03:24:31.999Z,66
2017-01-16T03:25:38.022Z,66
2017-01-16T03:26:44.051Z,66
2017-01-16T03:27:50.065Z,66
2017-01-16T03:28:56.087Z,67
2017-01-16T03:30:02.112Z,67
2017-01-16T03:31:08.131Z,67
2017-01-16T03:32:14.147Z,67
2017-01-16T03:33:20.173Z,67
2017-01-16T03:34:26.201Z,67
2017-01-16T03:35:32.217Z,67
2017-01-16T03:36:38.241Z,67
2017-01-16T03:37:44.267Z,67
2017-01-16T03:38:50.295Z,67
2017-01-16T03:39:56.309Z,67
2017-01-16T03:41:02.335Z,67
2017-01-16T03:42:08.354Z,67
2017-01-16T03:43:14.375Z,67
2017-01-16T03:44:20.386Z,67
2017-01-16T03:45:26.416Z,67
2017-01-16T03:46:32.436Z,67
2017-01-16T03:47:38.454Z,67
2017-01-16T03:48:44.476Z,67
2017-01-16T03:49:50.507Z,67
2017-01-16T03:50:56.517Z,67
2017-01-16T03:52:02.548Z,67
2017-01-16T03:53:08.563Z,67
2017-01-16T03:54:14.581Z,67
2017-01-16T03:55:20.597Z,67
2017-01-16T03:56:26.627Z,67
2017-01-16T03:57:32.654Z,67
2017-01-16T03:58:38.670Z,67
2017-01-16T03:59:44.700Z,67
2017-01-16T04:00:50.722Z,67
2017-01-16T04:01:56.744Z,67
2017-01-16T04:03:02.762Z,67
2017-01-16T04:04:08.780Z,67
2017-01-16T04:05:14.799Z,67
2017-01-16T04:06:20.820Z,67
2017-01-16T04:07:26.843Z,67
2017-01-16T04:08:32.869Z,67
2017-01-16T04:09:38.894Z,67
2017-01-16T04:10:44.917Z,67
2017-01-16T04:11:50.940Z,67
2017-01-16T04:12:56.961Z,67
2017-01-16T04:14:02.982Z,67
2017-01-16T04:15:09.001Z,67
2017-01-16T04:16:15.024Z,67
2017-01-16T04:17:21.047Z,67
2017-01-16T04:18:27.080Z,67
2017-01-16T04:19:33.104Z,67
2017-01-16T04:20:39.127Z,67
2017-01-16T04:21:45.151Z,67
2017-01-16T04:22:51.177Z,67
2017-01-16T04:23:57.195Z,67
2017-01-16T04:25:03.211Z,67
2017-01-16T04:26:09.236Z,67
2017-01-16T04:27:15.262Z,67
2017-01-16T04:28:21.322Z,67
2017-01-16T04:29:27.349Z,67
2017-01-16T04:30:33.373Z,67
2017-01-16T04:31:39.397Z,67
2017-01-16T04:32:45.414Z,67
2017-01-16T04:33:51.436Z,67
2017-01-16T04:34:57.457Z,67
2017-01-16T04:36:03.484Z,67
2017-01-16T04:37:09.510Z,67
2017-01-16T04:38:15.535Z,67
2017-01-16T04:39:21.561Z,67
2017-01-16T04:40:27.584Z,67
2017-01-16T04:41:33.601Z,67
2017-01-16T04:42:39.619Z,67
2017-01-16T04:43:45.645Z,67
2017-01-16T04:44:51.665Z,67
2017-01-16T04:45:57.687Z,67
2017-01-16T04:47:03.715Z,67
2017-01-16T04:48:09.733Z,67
2017-01-16T04:49:15.764Z,67
2017-01-16T04:50:21.776Z,67
2017-01-16T04:51:27.788Z,67
2017-01-16T04:52:33.816Z,67
2017-01-16T04:53:39.837Z,67
2017-01-16T04:54:45.867Z,67
2017-01-16T04:55:51.888Z,67
2017-01-16T04:56:57.912Z,67
2017-01-16T04:58:03.941Z,67
2017-01-16T04:59:09.963Z,67
2017-01-16T05:00:15.974Z,67
2017-01-16T05:01:22.003Z,67
2017-01-16T05:02:28.023Z,67
2017-01-16T05:03:34.038Z,67
2017-01-16T05:04:40.065Z,67
2017-01-16T05:05:46.092Z,67
2017-01-16T05:06:52.116Z,67
2017-01-16T05:07:58.127Z,66
2017-01-16T05:09:04.157Z,66
2017-01-16T05:10:10.173Z,66
2017-01-16T05:11:16.190Z,66
2017-01-16T05:12:22.209Z,66
2017-01-16T05:13:28.240Z,66
2017-01-16T05:14:34.263Z,66
2017-01-16T05:15:40.284Z,66
2017-01-16T05:16:46.298Z,66
2017-01-16T05:17:52.322Z,66
2017-01-16T05:18:58.341Z,66
2017-01-16T05:20:04.365Z,66
2017-01-16T05:21:10.381Z,66
2017-01-16T05:22:16.405Z,66
2017-01-16T05:23:22.420Z,66
2017-01-16T05:24:28.439Z,66
2017-01-16T05:25:34.463Z,66
2017-01-16T05:26:40.485Z,66
2017-01-16T05:27:46.510Z,66
2017-01-16T05:28:52.536Z,66
2017-01-16T05:29:58.555Z,66
2017-01-16T05:31:04.578Z,66
2017-01-16T05:32:10.597Z,66
2017-01-16T05:33:16.639Z,66
2017-01-16T05:34:22.651Z,66
2017-01-16T05:35:28.675Z,66
2017-01-16T05:36:34.698Z,66
2017-01-16T05:37:40.726Z,66
2017-01-16T05:38:46.745Z,66
2017-01-16T05:39:52.763Z,67
2017-01-16T05:40:58.781Z,67
2017-01-16T05:42:04.808Z,67
2017-01-16T05:43:10.831Z,67
2017-01-16T05:44:16.857Z,67
2017-01-16T05:45:22.875Z,67
2017-01-16T05:46:28.911Z,67
2017-01-16T05:47:34.930Z,67
2017-01-16T05:48:40.952Z,66
2017-01-16T05:49:46.979Z,66
2017-01-16T05:50:53.005Z,66
2017-01-16T05:51:59.025Z,66
2017-01-16T05:53:05.041Z,66
2017-01-16T05:54:11.057Z,66
2017-01-16T05:55:17.090Z,66
2017-01-16T05:56:23.108Z,66
2017-01-16T05:57:29.127Z,66
2017-01-16T05:58:35.152Z,66
2017-01-16T05:59:41.176Z,66
2017-01-16T06:00:47.196Z,66
2017-01-16T06:01:53.214Z,66
2017-01-16T06:02:59.243Z,66
2017-01-16T06:04:05.266Z,66
2017-01-16T06:05:11.284Z,66
2017-01-16T06:06:17.303Z,66
2017-01-16T06:07:23.321Z,66
2017-01-16T06:08:29.342Z,66
2017-01-16T06:09:35.366Z,66
2017-01-16T06:10:41.392Z,66
2017-01-16T06:11:47.415Z,66
2017-01-16T06:12:53.434Z,66
2017-01-16T06:13:59.465Z,66
2017-01-16T06:15:05.475Z,66
2017-01-16T06:16:11.497Z,66
2017-01-16T06:17:17.512Z,65
2017-01-16T06:18:23.538Z,66
2017-01-16T06:19:29.551Z,66
2017-01-16T06:20:35.577Z,66
2017-01-16T06:21:41.602Z,66
2017-01-16T06:22:47.632Z,66
2017-01-16T06:23:53.644Z,65
2017-01-16T06:24:59.667Z,65
2017-01-16T06:26:05.694Z,66
2017-01-16T06:27:11.728Z,66
2017-01-16T06:28:17.730Z,66
2017-01-16T06:29:23.756Z,66
2017-01-16T06:30:29.782Z,66
2017-01-16T06:31:35.804Z,66
2017-01-16T06:32:41.824Z,66
2017-01-16T06:33:47.846Z,66
2017-01-16T06:34:53.867Z,66
2017-01-16T06:35:59.897Z,66
2017-01-16T06:37:05.915Z,66
2017-01-16T06:38:11.937Z,66
2017-01-16T06:39:17.959Z,66
2017-01-16T06:40:23.976Z,66
2017-01-16T06:41:30.002Z,66
2017-01-16T06:42:36.031Z,66
2017-01-16T06:43:42.057Z,66
2017-01-16T06:44:48.071Z,65
2017-01-16T06:45:54.093Z,65
2017-01-16T06:47:00.119Z,65
2017-01-16T06:48:06.142Z,65
2017-01-16T06:49:12.164Z,65
2017-01-16T06:50:18.190Z,65
2017-01-16T06:51:24.213Z,65
2017-01-16T06:52:30.241Z,65
2017-01-16T06:53:36.257Z,65
2017-01-16T06:54:42.279Z,65
2017-01-16T06:55:48.296Z,65
2017-01-16T06:56:54.317Z,65
2017-01-16T06:58:00.338Z,65
2017-01-16T06:59:06.358Z,65
2017-01-16T07:00:12.372Z,65
2017-01-16T07:01:18.390Z,65
2017-01-16T07:02:24.415Z,65
2017-01-16T07:03:30.438Z,65
2017-01-16T07:04:36.456Z,65
2017-01-16T07:05:42.477Z,65
2017-01-16T07:06:48.498Z,65
2017-01-16T07:07:54.517Z,65
2017-01-16T07:09:00.532Z,64
2017-01-16T07:10:06.556Z,64
2017-01-16T07:11:12.579Z,64
2017-01-16T07:12:18.601Z,64
2017-01-16T07:13:24.617Z,65
2017-01-16T07:14:30.645Z,65
2017-01-16T07:15:36.669Z,65
2017-01-16T07:16:42.693Z,65
2017-01-16T07:17:48.707Z,65
2017-01-16T07:18:54.737Z,65
2017-01-16T07:20:00.762Z,65
2017-01-16T07:21:06.786Z,65
2017-01-16T07:22:12.800Z,65
2017-01-16T07:23:18.835Z,65
2017-01-16T07:24:24.859Z,65
2017-01-16T07:25:30.879Z,65
2017-01-16T07:26:36.892Z,65
2017-01-16T07:27:42.922Z,65
2017-01-16T07:28:48.941Z,65
2017-01-16T07:29:54.960Z,65
2017-01-16T07:31:00.986Z,65
2017-01-16T07:32:07.011Z,65
2017-01-16T07:33:13.037Z,65
2017-01-16T07:34:19.054Z,65
2017-01-16T07:35:25.092Z,65
2017-01-16T07:36:31.104Z,65
2017-01-16T07:37:37.126Z,65
2017-01-16T07:38:43.143Z,66
2017-01-16T07:39:49.175Z,66
2017-01-16T07:40:55.200Z,66
2017-01-16T07:42:01.223Z,66
2017-01-16T07:43:07.243Z,66
2017-01-16T07:44:13.266Z,66
2017-01-16T07:45:19.289Z,66
2017-01-16T07:46:25.315Z,66
2017-01-16T07:47:31.328Z,66
2017-01-16T07:48:37.354Z,66
2017-01-16T07:49:43.379Z,66
2017-01-16T07:50:49.408Z,66
2017-01-16T07:51:55.423Z,66
2017-01-16T07:53:01.452Z,66
2017-01-16T07:54:07.478Z,66
2017-01-16T07:55:13.494Z,66
2017-01-16T07:56:19.510Z,66
2017-01-16T07:57:25.536Z,65
2017-01-16T07:58:31.563Z,65
2017-01-16T07:59:37.578Z,65
2017-01-16T08:00:43.611Z,65
2017-01-16T08:01:49.637Z,65
2017-01-16T08:02:54.998Z,65
2017-01-16T08:04:01.009Z,66
2017-01-16T08:05:07.034Z,66
2017-01-16T08:06:13.054Z,66
2017-01-16T08:07:19.073Z,66
2017-01-16T08:08:25.092Z,66
2017-01-16T08:09:31.119Z,66
2017-01-16T08:10:37.146Z,66
2017-01-16T08:11:43.169Z,66
2017-01-16T08:12:49.188Z,66
2017-01-16T08:13:55.210Z,66
2017-01-16T08:15:01.235Z,65
2017-01-16T08:16:07.258Z,65
2017-01-16T08:17:13.284Z,65
2017-01-16T08:18:19.314Z,65
2017-01-16T08:19:25.333Z,65
2017-01-16T08:20:31.355Z,65
2017-01-16T08:21:37.378Z,65
2017-01-16T08:22:43.397Z,65
2017-01-16T08:23:49.416Z,65
2017-01-16T08:24:55.431Z,65
2017-01-16T08:26:01.452Z,65
2017-01-16T08:27:07.478Z,64
2017-01-16T08:28:13.499Z,65
2017-01-16T08:29:19.521Z,65
2017-01-16T08:30:25.546Z,65
2017-01-16T08:31:31.572Z,65
2017-01-16T08:32:37.594Z,64
2017-01-16T08:33:43.609Z,64
2017-01-16T08:34:49.627Z,64
2017-01-16T08:35:55.646Z,64
2017-01-16T08:37:01.665Z,64
2017-01-16T08:38:07.687Z,64
2017-01-16T08:39:13.707Z,63
2017-01-16T08:40:19.728Z,63
2017-01-16T08:41:25.748Z,63
2017-01-16T08:42:31.777Z,63
2017-01-16T08:43:37.802Z,63
2017-01-16T08:44:43.823Z,63
2017-01-16T08:45:49.843Z,63
2017-01-16T08:46:55.864Z,63
2017-01-16T08:48:01.888Z,63
2017-01-16T08:49:07.906Z,64
2017-01-16T08:50:13.925Z,64
2017-01-16T08:51:19.958Z,65
2017-01-16T08:52:25.976Z,65
2017-01-16T08:53:31.993Z,65
2017-01-16T08:54:38.008Z,65
2017-01-16T08:55:44.032Z,65
2017-01-16T08:56:50.055Z,64
2017-01-16T08:57:56.077Z,64
2017-01-16T08:59:02.105Z,64
2017-01-16T09:00:08.131Z,64
2017-01-16T09:01:14.151Z,64
2017-01-16T09:02:20.166Z,65
2017-01-16T09:03:26.196Z,65
2017-01-16T09:04:32.209Z,65
2017-01-16T09:05:38.229Z,65
2017-01-16T09:06:44.247Z,65
2017-01-16T09:07:50.272Z,66
2017-01-16T09:08:56.287Z,66
2017-01-16T09:10:02.311Z,66
2017-01-16T09:11:08.331Z,66
2017-01-16T09:12:14.356Z,66
2017-01-16T09:13:20.376Z,66
2017-01-16T09:14:26.405Z,66
2017-01-16T09:15:32.420Z,66
2017-01-16T09:16:38.448Z,66
2017-01-16T09:17:44.472Z,66
2017-01-16T09:18:50.504Z,66
2017-01-16T09:19:56.519Z,66
2017-01-16T09:21:02.545Z,66
2017-01-16T09:22:08.568Z,66
2017-01-16T09:23:14.588Z,66
2017-01-16T09:24:20.599Z,66
2017-01-16T09:25:26.622Z,66
2017-01-16T09:26:32.646Z,66
2017-01-16T09:27:38.662Z,66
2017-01-16T09:28:44.687Z,66
2017-01-16T09:29:50.704Z,65
2017-01-16T09:30:56.735Z,65
2017-01-16T09:32:02.748Z,65
2017-01-16T09:33:08.771Z,65
2017-01-16T09:34:14.792Z,64
2017-01-16T09:35:20.807Z,64
2017-01-16T09:36:26.825Z,64
2017-01-16T09:37:32.844Z,63
2017-01-16T09:38:38.882Z,63
2017-01-16T09:39:44.907Z,62
2017-01-16T09:40:51.002Z,62
2017-01-16T09:41:57.021Z,62
2017-01-16T09:43:03.059Z,62
2017-01-16T09:44:09.108Z,61
2017-01-16T09:45:15.159Z,61
2017-01-16T09:46:21.189Z,62
2017-01-16T09:47:27.216Z,62
2017-01-16T09:48:33.254Z,63
2017-01-16T09:49:39.279Z,63
2017-01-16T09:50:45.298Z,63
2017-01-16T09:51:51.343Z,63
2017-01-16T09:52:57.347Z,63
2017-01-16T09:54:03.396Z,62
2017-01-16T09:55:09.431Z,61
2017-01-16T09:56:15.458Z,61
2017-01-16T09:57:21.479Z,61
2017-01-16T09:58:27.522Z,61
2017-01-16T09:59:33.564Z,61
2017-01-16T10:00:39.611Z,60
2017-01-16T10:01:45.648Z,60
2017-01-16T10:02:51.668Z,60
2017-01-16T10:03:57.689Z,60
2017-01-16T10:05:03.714Z,60
2017-01-16T10:06:09.754Z,60
2017-01-16T10:07:15.782Z,60
2017-01-16T10:08:21.805Z,60
2017-01-16T10:09:27.850Z,60
2017-01-16T10:10:33.925Z,60
2017-01-16T10:11:39.943Z,59
2017-01-16T10:12:45.971Z,59
2017-01-16T10:13:51.972Z,59
2017-01-16T10:14:58.063Z,59
2017-01-16T10:16:04.136Z,59
2017-01-16T10:17:10.166Z,60
2017-01-16T10:18:16.224Z,58
2017-01-16T10:19:22.247Z,58
2017-01-16T10:20:28.307Z,58
2017-01-16T10:21:34.331Z,58
2017-01-16T10:22:40.431Z,58
2017-01-16T10:23:46.538Z,58
2017-01-16T10:24:52.509Z,58
2017-01-16T10:25:58.564Z,58
2017-01-16T10:27:04.624Z,58
2017-01-16T10:28:10.785Z,58
2017-01-16T10:29:16.864Z,58
2017-01-16T10:30:22.886Z,58
2017-01-16T10:31:28.942Z,58
2017-01-16T10:32:35.066Z,57
2017-01-16T10:33:41.024Z,57
2017-01-16T10:34:47.073Z,57
2017-01-16T10:35:53.073Z,57
2017-01-16T10:36:59.097Z,57
2017-01-16T10:38:05.127Z,57
2017-01-16T10:39:11.175Z,57
2017-01-16T10:40:17.189Z,56
2017-01-16T10:41:23.208Z,56
2017-01-16T10:42:29.225Z,56
2017-01-16T10:43:35.249Z,57
2017-01-16T10:44:41.284Z,57
2017-01-16T10:45:47.329Z,57
2017-01-16T10:46:53.362Z,56
2017-01-16T10:47:59.455Z,56
2017-01-16T10:49:05.475Z,56
2017-01-16T10:50:11.522Z,56
2017-01-16T10:51:17.560Z,56
2017-01-16T10:52:23.605Z,56
2017-01-16T10:53:29.662Z,55
2017-01-16T10:54:35.688Z,54
2017-01-16T10:55:41.721Z,54
2017-01-16T10:56:47.747Z,54
2017-01-16T10:57:53.768Z,54
2017-01-16T10:58:59.893Z,54
2017-01-16T11:00:05.907Z,54
2017-01-16T11:01:12.015Z,54
2017-01-16T11:02:17.950Z,54
2017-01-16T11:03:23.974Z,54
2017-01-16T11:04:29.988Z,53
2017-01-16T11:05:36.023Z,54
2017-01-16T11:06:42.130Z,53
2017-01-16T11:07:48.074Z,53
2017-01-16T11:08:54.100Z,53
2017-01-16T11:10:00.128Z,53
2017-01-16T11:11:06.158Z,53
2017-01-16T11:12:12.186Z,53
2017-01-16T11:13:18.205Z,53
2017-01-16T11:14:24.223Z,53
2017-01-16T11:15:30.249Z,53
2017-01-16T11:16:36.271Z,53
2017-01-16T11:17:42.289Z,53
2017-01-16T11:18:47.650Z,53
2017-01-16T11:19:53.666Z,53
2017-01-16T11:20:59.687Z,53
2017-01-16T11:22:05.709Z,53
2017-01-16T11:23:11.733Z,52
2017-01-16T11:24:17.810Z,52
2017-01-16T11:25:23.790Z,51
2017-01-16T11:26:29.816Z,52
2017-01-16T11:27:35.838Z,52
2017-01-16T11:28:41.873Z,51
2017-01-16T11:29:47.917Z,52
2017-01-16T11:30:53.900Z,51
2017-01-16T11:31:59.916Z,51
2017-01-16T11:33:05.983Z,50
2017-01-16T11:34:12.003Z,50
2017-01-16T11:35:18.026Z,50
2017-01-16T11:36:24.059Z,50
2017-01-16T11:37:30.078Z,50
2017-01-16T11:38:36.102Z,50
2017-01-16T11:39:42.129Z,49
2017-01-16T11:40:48.151Z,49
2017-01-16T11:41:54.172Z,49
2017-01-16T11:43:00.195Z,49
2017-01-16T11:44:06.206Z,49
2017-01-16T11:45:12.221Z,50
2017-01-16T11:46:18.243Z,49
2017-01-16T11:47:24.266Z,49
2017-01-16T11:48:30.297Z,49
2017-01-16T11:49:36.322Z,48
2017-01-16T11:50:42.348Z,49
2017-01-16T11:51:48.369Z,49
2017-01-16T11:52:54.401Z,49
2017-01-16T11:54:00.453Z,49
2017-01-16T11:55:06.473Z,48
2017-01-16T11:56:12.497Z,47
2017-01-16T11:57:18.618Z,46
2017-01-16T11:58:24.588Z,48
2017-01-16T11:59:30.601Z,47
2017-01-16T12:00:36.628Z,48
2017-01-16T12:01:42.646Z,48
2017-01-16T12:02:48.696Z,48
2017-01-16T12:03:54.717Z,48
2017-01-16T12:05:00.741Z,48
2017-01-16T12:06:06.755Z,48
2017-01-16T12:07:12.830Z,47
2017-01-16T12:08:18.854Z,47
2017-01-16T12:09:24.873Z,48
2017-01-16T12:10:30.888Z,48
2017-01-16T12:11:36.940Z,46
2017-01-16T12:12:42.958Z,46
2017-01-16T12:13:48.973Z,46
2017-01-16T12:14:54.988Z,45
2017-01-16T12:16:01.079Z,45
2017-01-16T12:17:07.034Z,47
2017-01-16T12:18:13.083Z,45
2017-01-16T12:19:19.107Z,46
2017-01-16T12:20:25.148Z,47
2017-01-16T12:21:31.233Z,47
2017-01-16T12:22:37.232Z,48
2017-01-16T12:23:43.246Z,48
2017-01-16T12:24:49.426Z,48
2017-01-16T12:25:55.454Z,48
2017-01-16T12:27:01.467Z,47
2017-01-16T12:28:07.491Z,46
2017-01-16T12:29:13.573Z,46
2017-01-16T12:30:19.546Z,44
2017-01-16T12:31:25.562Z,46
2017-01-16T12:32:31.591Z,45
2017-01-16T12:33:37.632Z,45
2017-01-16T12:34:43.665Z,46
2017-01-16T12:35:49.681Z,46
2017-01-16T12:36:55.709Z,45
2017-01-16T12:38:01.733Z,44
2017-01-16T12:39:07.820Z,44
2017-01-16T12:40:13.848Z,44
2017-01-16T12:41:19.869Z,45
2017-01-16T12:42:25.905Z,45
2017-01-16T12:43:31.953Z,45
2017-01-16T12:44:37.948Z,43
2017-01-16T12:45:44.025Z,44
2017-01-16T12:46:50.014Z,43
2017-01-16T12:47:56.110Z,41
2017-01-16T12:49:02.125Z,43
2017-01-16T12:50:08.158Z,41
2017-01-16T12:51:14.184Z,42
2017-01-16T12:52:20.211Z,39
2017-01-16T12:53:26.318Z,42
2017-01-16T12:54:32.344Z,42
2017-01-16T12:55:38.369Z,42
2017-01-16T12:56:44.384Z,42
2017-01-16T12:57:50.422Z,44
2017-01-16T12:58:56.442Z,44
2017-01-16T13:00:02.458Z,44
2017-01-16T13:01:08.474Z,44
2017-01-16T13:02:14.496Z,45
2017-01-16T13:03:20.515Z,46
2017-01-16T13:04:26.539Z,47
2017-01-16T13:05:32.556Z,47
2017-01-16T13:06:38.772Z,48
2017-01-16T13:07:44.797Z,47
2017-01-16T13:08:50.849Z,48
2017-01-16T13:09:56.871Z,48
2017-01-16T13:11:02.895Z,49
2017-01-16T13:12:08.928Z,49
2017-01-16T13:13:14.930Z,49
2017-01-16T13:14:20.957Z,49
2017-01-16T13:15:26.978Z,49
2017-01-16T13:16:33.002Z,49
2017-01-16T13:17:39.028Z,49
2017-01-16T13:18:45.096Z,49
2017-01-16T13:19:51.081Z,49
2017-01-16T13:20:57.098Z,48
2017-01-16T13:22:03.108Z,48
2017-01-16T13:23:09.131Z,46
2017-01-16T13:24:15.183Z,42
2017-01-16T13:25:21.213Z,40
2017-01-16T13:26:27.227Z,33
2017-01-16T13:27:33.245Z,26
2017-01-16T13:28:39.264Z,26
2017-01-16T13:29:45.289Z,26
2017-01-16T13:30:51.323Z,27
2017-01-16T13:31:57.347Z,27
2017-01-16T13:33:03.462Z,28
2017-01-16T13:34:09.478Z,28
2017-01-16T13:35:15.509Z,28
2017-01-16T13:36:21.590Z,35
2017-01-16T13:37:27.695Z,40
2017-01-16T13:38:33.649Z,42
2017-01-16T13:39:39.669Z,44
2017-01-16T13:40:45.694Z,47
2017-01-16T13:41:51.712Z,48
2017-01-16T13:42:57.726Z,49
2017-01-16T13:44:03.762Z,50
2017-01-16T13:45:09.811Z,50
2017-01-16T13:46:15.831Z,50
2017-01-16T13:47:21.848Z,51
2017-01-16T13:48:27.954Z,51
2017-01-16T13:49:33.311Z,52
2017-01-16T13:50:39.332Z,52
2017-01-16T13:51:45.385Z,52
2017-01-16T13:52:51.410Z,52
2017-01-16T13:53:57.434Z,52
2017-01-16T13:55:03.454Z,52
2017-01-16T13:56:09.483Z,53
2017-01-16T13:57:14.847Z,53
2017-01-16T13:58:20.861Z,53
2017-01-16T13:59:26.879Z,53
2017-01-16T14:00:33.061Z,53
2017-01-16T14:01:39.083Z,53
2017-01-16T14:02:45.094Z,53
2017-01-16T14:03:51.270Z,53
2017-01-16T14:04:57.179Z,54
2017-01-16T14:06:03.205Z,54
2017-01-16T14:07:09.219Z,54
2017-01-16T14:08:15.243Z,54
2017-01-16T14:09:21.261Z,54
2017-01-16T14:10:27.278Z,54
2017-01-16T14:11:33.306Z,54
2017-01-16T14:12:39.478Z,54
2017-01-16T14:13:45.500Z,55
2017-01-16T14:14:51.519Z,55
2017-01-16T14:15:57.661Z,55
2017-01-16T14:17:03.683Z,54
2017-01-16T14:18:09.702Z,54
2017-01-16T14:19:15.721Z,54
2017-01-16T14:20:21.801Z,54
2017-01-16T14:21:27.826Z,54
2017-01-16T14:22:33.856Z,54
2017-01-16T14:23:39.876Z,54
2017-01-16T14:24:45.896Z,54
2017-01-16T14:25:51.919Z,54
2017-01-16T14:26:57.950Z,54
2017-01-16T14:28:03.968Z,54
2017-01-16T14:29:09.994Z,54
2017-01-16T14:30:16.019Z,55
2017-01-16T14:31:22.050Z,55
2017-01-16T14:32:28.073Z,55
2017-01-16T14:33:34.086Z,55
2017-01-16T14:34:40.113Z,55
2017-01-16T14:35:46.129Z,55
2017-01-16T14:36:52.143Z,55
2017-01-16T14:37:58.175Z,55
2017-01-16T14:39:04.200Z,55
2017-01-16T14:40:10.219Z,55
2017-01-16T14:41:16.240Z,55
2017-01-16T14:42:22.265Z,56
2017-01-16T14:43:28.287Z,56
2017-01-16T14:44:34.358Z,56
2017-01-16T14:45:40.335Z,56
2017-01-16T14:46:46.357Z,56
2017-01-16T14:47:52.395Z,56
2017-01-16T14:48:58.412Z,56
2017-01-16T14:50:04.443Z,56
2017-01-16T14:51:10.469Z,56
2017-01-16T14:52:16.498Z,56
2017-01-16T14:53:22.511Z,56
2017-01-16T14:54:28.536Z,56
2017-01-16T14:55:33.473Z,56
2017-01-16T14:56:39.481Z,56
2017-01-16T14:57:45.508Z,56
2017-01-16T14:58:51.534Z,56
2017-01-16T14:59:57.547Z,57
2017-01-16T15:01:03.611Z,57
2017-01-16T15:02:09.613Z,57
2017-01-16T15:03:15.911Z,57
2017-01-16T15:04:21.853Z,57
2017-01-16T15:05:27.871Z,57
2017-01-16T15:06:33.991Z,57
2017-01-16T15:07:40.169Z,58
2017-01-16T15:08:46.215Z,58
2017-01-16T15:09:52.345Z,58
2017-01-16T15:10:58.389Z,58
2017-01-16T15:12:04.418Z,58
2017-01-16T15:13:10.462Z,58
2017-01-16T15:14:16.496Z,58
2017-01-16T15:15:22.589Z,58
2017-01-16T15:16:28.595Z,58
2017-01-16T15:17:34.620Z,58
2017-01-16T15:18:40.673Z,58
2017-01-16T15:19:46.703Z,59
2017-01-16T15:20:52.721Z,59
2017-01-16T15:21:58.734Z,59
2017-01-16T15:23:04.750Z,59
2017-01-16T15:24:10.782Z,59
2017-01-16T15:25:16.802Z,59
2017-01-16T15:26:22.824Z,59
2017-01-16T15:27:28.848Z,59
2017-01-16T15:28:34.875Z,59
2017-01-16T15:29:40.889Z,59
2017-01-16T15:30:46.908Z,59
2017-01-16T15:31:52.934Z,59
2017-01-16T15:32:58.959Z,59
2017-01-16T15:34:04.984Z,59
2017-01-16T15:35:10.998Z,59
2017-01-16T15:36:17.033Z,59
2017-01-16T15:37:23.046Z,59
2017-01-16T15:38:29.066Z,59
2017-01-16T15:39:35.083Z,59
2017-01-16T15:40:41.111Z,60
2017-01-16T15:41:47.129Z,60